Time;durP1;ratioP1;P1;durP2;ratioP2;P2;SDS_P1;SDS_P2;PMS_P1;PMS_P2;Temp;Humidity;BMP_temperature;BMP_pressure;BME280_temperature;BME280_humidity;BME280_pressure;Samples;Min_cycle;Max_cycle;Signal;HPM_P1;HPM_P2
2022/12/04 00:02:31;;;;;;;14.45;7.65;;;;;;;;;;4943703;28;20051;-92
2022/12/04 00:04:57;;;;;;;14.10;8.02;;;;;;;;;;4943623;29;20034;-91
2022/12/04 00:07:23;;;;;;;13.63;8.00;;;;;;;;;;4943892;29;20027;-93
2022/12/04 00:09:49;;;;;;;15.63;8.15;;;;;;;;;;4943487;29;20415;-92
2022/12/04 00:12:18;;;;;;;15.13;7.72;;;;;;;;;;4943492;29;20028;-92
2022/12/04 00:20:51;;;;;;;14.55;7.40;;;;;;;;;;4943745;29;20115;-92
2022/12/04 00:23:17;;;;;;;13.90;7.28;;;;;;;;;;4943535;29;20039;-92
2022/12/04 00:25:47;;;;;;;12.48;6.88;;;;;;;;;;4957908;29;20015;-93
2022/12/04 00:28:50;;;;;;;15.40;7.63;;;;;;;;;;4962473;29;20110;-92
2022/12/04 00:31:18;;;;;;;15.10;7.45;;;;;;;;;;4945310;29;20422;-92
2022/12/04 00:33:44;;;;;;;12.32;5.82;;;;;;;;;;4962630;29;20086;-93
2022/12/04 00:36:12;;;;;;;10.13;6.07;;;;;;;;;;4962263;29;20031;-92
2022/12/04 00:38:39;;;;;;;13.70;6.90;;;;;;;;;;4961950;29;20322;-92
2022/12/04 00:41:05;;;;;;;16.20;7.47;;;;;;;;;;4962138;29;20030;-94
2022/12/04 00:43:50;;;;;;;10.75;6.28;;;;;;;;;;4961864;29;20059;-93
2022/12/04 00:46:16;;;;;;;12.50;7.15;;;;;;;;;;4962102;29;20025;-92
2022/12/04 00:48:42;;;;;;;15.18;6.80;;;;;;;;;;4961903;29;20035;-93
2022/12/04 00:51:10;;;;;;;15.80;6.93;;;;;;;;;;4941886;29;20030;-93
2022/12/04 00:53:36;;;;;;;12.02;6.30;;;;;;;;;;4928007;29;20027;-93
2022/12/04 00:56:04;;;;;;;12.18;6.43;;;;;;;;;;4944916;29;20062;-93
2022/12/04 00:58:30;;;;;;;12.93;6.72;;;;;;;;;;4944643;29;20059;-93
2022/12/04 01:01:01;;;;;;;11.77;5.40;;;;;;;;;;4961803;29;20056;-92
2022/12/04 01:03:27;;;;;;;10.02;5.28;;;;;;;;;;4944698;29;20070;-93
2022/12/04 01:05:53;;;;;;;9.57;5.25;;;;;;;;;;4962002;29;20019;-92
2022/12/04 01:08:20;;;;;;;11.77;5.97;;;;;;;;;;4961659;29;20027;-93
2022/12/04 01:10:46;;;;;;;10.77;4.97;;;;;;;;;;4961500;28;20028;-92
2022/12/04 01:13:12;;;;;;;10.25;4.80;;;;;;;;;;4961521;29;20032;-93
2022/12/04 01:15:48;;;;;;;10.43;5.45;;;;;;;;;;4961659;29;20023;-93
2022/12/04 01:18:14;;;;;;;9.13;4.65;;;;;;;;;;4961110;29;20027;-93
2022/12/04 01:20:40;;;;;;;7.95;4.05;;;;;;;;;;4961649;29;20033;-92
2022/12/04 01:23:06;;;;;;;9.32;5.07;;;;;;;;;;4961267;29;20023;-92
2022/12/04 01:25:32;;;;;;;7.80;4.35;;;;;;;;;;4944162;29;20023;-93
2022/12/04 01:27:58;;;;;;;8.30;4.32;;;;;;;;;;4961426;29;20402;-93
2022/12/04 01:33:29;;;;;;;6.47;3.88;;;;;;;;;;4961463;29;20037;-93
2022/12/04 01:35:56;;;;;;;8.40;4.13;;;;;;;;;;4961282;29;20070;-91
2022/12/04 01:38:22;;;;;;;11.15;4.60;;;;;;;;;;4961074;29;20094;-93
2022/12/04 01:40:48;;;;;;;7.60;4.15;;;;;;;;;;4960894;29;20031;-93
2022/12/04 01:43:14;;;;;;;9.23;4.55;;;;;;;;;;4961276;29;20046;-93
2022/12/04 01:45:42;;;;;;;9.25;3.90;;;;;;;;;;4961389;29;20087;-94
2022/12/04 01:48:29;;;;;;;11.75;5.15;;;;;;;;;;4944222;29;20057;-92
2022/12/04 01:51:00;;;;;;;7.95;4.05;;;;;;;;;;4942057;29;20362;-92
2022/12/04 01:53:26;;;;;;;6.72;3.58;;;;;;;;;;4925393;29;20066;-92
2022/12/04 01:55:52;;;;;;;8.45;4.03;;;;;;;;;;4960793;29;20035;-92
2022/12/04 02:01:07;;;;;;;7.40;4.25;;;;;;;;;;4960781;29;20119;-92
2022/12/04 02:03:33;;;;;;;8.40;4.30;;;;;;;;;;4943558;29;20046;-93
2022/12/04 02:05:59;;;;;;;10.45;4.53;;;;;;;;;;4961043;29;20024;-92
2022/12/04 02:08:26;;;;;;;8.93;4.20;;;;;;;;;;4960751;29;20038;-93
2022/12/04 02:11:04;;;;;;;11.98;5.25;;;;;;;;;;4960357;29;20027;-93
2022/12/04 02:16:39;;;;;;;9.93;4.47;;;;;;;;;;4960480;29;20030;-93
2022/12/04 02:19:15;;;;;;;12.60;5.32;;;;;;;;;;4943460;29;20031;-93
2022/12/04 02:21:44;;;;;;;15.75;5.97;;;;;;;;;;4960327;28;20031;-92
2022/12/04 02:24:19;;;;;;;12.00;5.70;;;;;;;;;;4959902;29;20052;-94
2022/12/04 02:26:50;;;;;;;10.80;4.82;;;;;;;;;;4960400;29;20414;-93
2022/12/04 02:32:40;;;;;;;12.48;5.50;;;;;;;;;;4960235;29;20430;-93
2022/12/04 02:35:12;;;;;;;11.32;5.53;;;;;;;;;;4959989;29;20028;-93
2022/12/04 02:37:41;;;;;;;11.13;4.60;;;;;;;;;;4942768;29;20414;-93
2022/12/04 02:40:07;;;;;;;12.63;5.60;;;;;;;;;;4959938;29;20035;-94
2022/12/04 02:42:56;;;;;;;9.95;4.75;;;;;;;;;;4942985;29;20058;-92
2022/12/04 02:48:27;;;;;;;8.05;4.28;;;;;;;;;;4883056;29;20036;-92
2022/12/04 02:50:54;;;;;;;11.18;4.43;;;;;;;;;;4882678;29;20079;-92
2022/12/04 02:53:23;;;;;;;9.98;4.32;;;;;;;;;;4882610;29;20033;-93
2022/12/04 02:55:58;;;;;;;11.98;6.10;;;;;;;;;;4882439;29;20430;-92
2022/12/04 02:58:27;;;;;;;18.42;8.52;;;;;;;;;;4882458;29;20029;-92
2022/12/04 03:03:59;;;;;;;31.77;13.13;;;;;;;;;;4862819;29;20069;-92
2022/12/04 03:06:27;;;;;;;57.08;21.95;;;;;;;;;;4863981;29;20429;-92
2022/12/04 03:08:58;;;;;;;58.90;20.98;;;;;;;;;;4863678;29;20446;-92
2022/12/04 03:11:26;;;;;;;47.05;18.80;;;;;;;;;;4863617;29;20033;-93
2022/12/04 03:13:54;;;;;;;43.90;18.15;;;;;;;;;;4863660;29;20831;-93
2022/12/04 03:16:32;;;;;;;35.70;15.80;;;;;;;;;;4864491;29;20037;-92
2022/12/04 03:19:02;;;;;;;22.38;11.32;;;;;;;;;;4882237;29;20029;-93
2022/12/04 03:21:31;;;;;;;21.48;9.48;;;;;;;;;;4890557;29;20040;-92
2022/12/04 03:24:02;;;;;;;10.18;5.60;;;;;;;;;;4944926;29;20016;-92
2022/12/04 03:26:31;;;;;;;8.68;4.85;;;;;;;;;;4959403;29;20027;-92
2022/12/04 03:32:05;;;;;;;9.52;4.43;;;;;;;;;;4940425;29;20058;-92
2022/12/04 03:34:52;;;;;;;6.85;4.20;;;;;;;;;;4925343;29;20036;-92
2022/12/04 03:37:19;;;;;;;8.82;4.13;;;;;;;;;;4904569;29;20044;-93
2022/12/04 03:39:55;;;;;;;7.65;4.20;;;;;;;;;;4896906;29;20340;-92
2022/12/04 03:42:26;;;;;;;7.70;3.72;;;;;;;;;;4904640;29;20316;-92
2022/12/04 03:45:10;;;;;;;7.03;3.35;;;;;;;;;;4904775;29;20041;-93
2022/12/04 03:47:41;;;;;;;7.57;3.67;;;;;;;;;;4904517;29;20033;-93
2022/12/04 03:50:12;;;;;;;6.15;3.38;;;;;;;;;;4904358;29;20103;-93
2022/12/04 03:52:46;;;;;;;6.07;3.90;;;;;;;;;;4904214;29;20036;-92
2022/12/04 03:55:15;;;;;;;5.53;3.72;;;;;;;;;;4904428;29;20036;-92
2022/12/04 03:57:43;;;;;;;6.72;3.30;;;;;;;;;;4904069;29;20036;-92
2022/12/04 04:00:12;;;;;;;5.65;3.65;;;;;;;;;;4904162;29;20037;-93
2022/12/04 04:02:40;;;;;;;4.38;3.17;;;;;;;;;;4904260;29;20037;-93
2022/12/04 04:05:09;;;;;;;4.93;3.30;;;;;;;;;;4904065;29;20092;-93
2022/12/04 04:07:41;;;;;;;5.38;3.00;;;;;;;;;;4903893;29;20045;-94
2022/12/04 04:10:11;;;;;;;5.95;3.20;;;;;;;;;;4904094;29;20512;-92
2022/12/04 04:12:41;;;;;;;4.45;2.97;;;;;;;;;;4904094;29;20123;-93
2022/12/04 04:26:33;;;;;;;5.07;3.30;;;;;;;;;;4958494;29;20107;-93
2022/12/04 04:28:59;;;;;;;6.75;3.35;;;;;;;;;;4962401;29;20106;-94
2022/12/04 04:37:51;;;;;;;4.25;2.60;;;;;;;;;;4949230;29;20115;-93
2022/12/04 04:40:21;;;;;;;5.00;2.92;;;;;;;;;;4945058;29;20033;-92
2022/12/04 04:43:06;;;;;;;5.50;3.42;;;;;;;;;;4954905;29;20369;-90
2022/12/04 04:51:45;;;;;;;5.35;3.38;;;;;;;;;;4962180;29;20029;-92
2022/12/04 04:54:12;;;;;;;4.22;2.95;;;;;;;;;;4962120;29;20114;-91
2022/12/04 04:56:40;;;;;;;4.78;2.90;;;;;;;;;;4962013;29;20020;-92
2022/12/04 04:59:06;;;;;;;3.83;2.30;;;;;;;;;;4944864;29;20053;-92
2022/12/04 05:04:35;;;;;;;3.70;2.65;;;;;;;;;;4960488;28;20097;-91
2022/12/04 05:07:01;;;;;;;12.70;5.57;;;;;;;;;;4944748;29;20034;-91
2022/12/04 05:09:27;;;;;;;55.55;16.33;;;;;;;;;;4944941;29;20034;-92
2022/12/04 05:11:53;;;;;;;56.25;18.63;;;;;;;;;;4944751;29;20038;-93
2022/12/04 05:14:21;;;;;;;58.47;23.73;;;;;;;;;;4961771;29;20402;-93
2022/12/04 05:20:06;;;;;;;13.38;7.40;;;;;;;;;;4961640;29;20081;-93
2022/12/04 05:22:33;;;;;;;8.55;4.70;;;;;;;;;;4944551;29;20027;-89
2022/12/04 05:25:03;;;;;;;7.78;3.78;;;;;;;;;;4961431;29;20111;-93
2022/12/04 05:27:29;;;;;;;5.55;2.85;;;;;;;;;;4961548;29;20019;-93
2022/12/04 05:30:15;;;;;;;6.82;2.95;;;;;;;;;;4961558;29;20032;-92
2022/12/04 05:32:41;;;;;;;6.75;3.20;;;;;;;;;;4944301;29;20023;-93
2022/12/04 05:35:08;;;;;;;11.05;4.57;;;;;;;;;;4944404;29;20035;-92
2022/12/04 05:37:38;;;;;;;8.95;3.80;;;;;;;;;;4961033;29;20065;-92
2022/12/04 05:40:04;;;;;;;6.32;2.60;;;;;;;;;;4961238;28;20406;-91
2022/12/04 05:42:30;;;;;;;5.93;3.00;;;;;;;;;;4961403;29;20036;-92
2022/12/04 05:45:15;;;;;;;5.15;2.22;;;;;;;;;;4960905;29;20028;-92
2022/12/04 05:47:44;;;;;;;5.63;2.75;;;;;;;;;;4960623;29;20042;-91
2022/12/04 05:50:12;;;;;;;4.22;2.40;;;;;;;;;;4960940;29;20031;-92
2022/12/04 05:52:38;;;;;;;8.88;3.10;;;;;;;;;;4960975;29;20031;-91
2022/12/04 05:55:04;;;;;;;4.82;2.70;;;;;;;;;;4960980;29;20066;-92
2022/12/04 05:57:30;;;;;;;6.18;3.20;;;;;;;;;;4959850;28;20027;-92
2022/12/04 05:59:56;;;;;;;7.35;4.60;;;;;;;;;;4943757;29;20031;-92
2022/12/04 06:02:23;;;;;;;10.98;5.18;;;;;;;;;;4943588;29;20329;-92
2022/12/04 06:04:49;;;;;;;8.70;5.03;;;;;;;;;;4960745;28;20050;-92
2022/12/04 06:07:15;;;;;;;9.10;4.82;;;;;;;;;;4960378;29;20046;-91
2022/12/04 06:09:41;;;;;;;12.27;6.80;;;;;;;;;;4960333;29;20043;-92
2022/12/04 06:12:07;;;;;;;18.40;8.80;;;;;;;;;;4960147;29;20055;-93
2022/12/04 06:14:33;;;;;;;34.85;11.57;;;;;;;;;;4960415;29;20070;-91
2022/12/04 06:17:17;;;;;;;30.80;11.68;;;;;;;;;;4960292;29;20019;-91
2022/12/04 06:19:43;;;;;;;27.33;10.23;;;;;;;;;;4960271;29;20035;-92
2022/12/04 06:22:09;;;;;;;12.95;6.03;;;;;;;;;;4960370;29;20118;-92
2022/12/04 06:24:35;;;;;;;12.65;5.30;;;;;;;;;;4960344;29;20015;-93
2022/12/04 06:27:01;;;;;;;9.98;5.05;;;;;;;;;;4943202;29;20031;-91
2022/12/04 06:29:27;;;;;;;15.07;6.32;;;;;;;;;;4960321;29;20034;-92
2022/12/04 06:31:53;;;;;;;17.58;6.45;;;;;;;;;;4943082;29;20042;-92
2022/12/04 06:34:19;;;;;;;12.95;6.50;;;;;;;;;;4943111;29;20075;-92
2022/12/04 06:36:46;;;;;;;21.65;8.35;;;;;;;;;;4942908;29;20027;-91
2022/12/04 06:39:12;;;;;;;21.27;9.00;;;;;;;;;;4942746;29;20422;-92
2022/12/04 06:41:38;;;;;;;17.73;6.65;;;;;;;;;;4942671;29;20035;-92
2022/12/04 06:44:04;;;;;;;17.73;7.28;;;;;;;;;;4960261;29;20027;-93
2022/12/04 06:49:35;;;;;;;10.90;5.18;;;;;;;;;;4960057;29;20078;-93
2022/12/04 06:52:01;;;;;;;9.13;4.53;;;;;;;;;;4942927;29;20043;-93
2022/12/04 06:54:27;;;;;;;15.05;5.45;;;;;;;;;;4959804;29;20078;-93
2022/12/04 06:56:53;;;;;;;8.98;4.55;;;;;;;;;;4959761;29;20031;-94
2022/12/04 06:59:20;;;;;;;8.35;4.90;;;;;;;;;;4959748;29;20030;-92
2022/12/04 07:04:49;;;;;;;9.52;4.90;;;;;;;;;;4959844;28;20122;-92
2022/12/04 07:07:15;;;;;;;12.65;5.82;;;;;;;;;;4942841;29;20058;-92
2022/12/04 07:09:41;;;;;;;10.52;4.95;;;;;;;;;;4942401;29;20031;-92
2022/12/04 07:12:07;;;;;;;10.93;5.18;;;;;;;;;;4942636;29;20121;-92
2022/12/04 07:14:33;;;;;;;8.98;4.45;;;;;;;;;;4959855;29;20035;-94
2022/12/04 07:16:59;;;;;;;8.00;4.57;;;;;;;;;;4959660;29;20035;-93
2022/12/04 07:19:25;;;;;;;10.27;5.47;;;;;;;;;;4959553;29;20027;-90
2022/12/04 07:21:51;;;;;;;12.50;5.80;;;;;;;;;;4959460;29;20031;-91
2022/12/04 07:24:17;;;;;;;11.23;6.30;;;;;;;;;;4959294;29;20026;-93
2022/12/04 07:26:43;;;;;;;10.85;5.50;;;;;;;;;;4964583;28;20038;-93
2022/12/04 07:29:10;;;;;;;15.23;6.90;;;;;;;;;;4959894;28;20122;-91
2022/12/04 07:31:37;;;;;;;20.83;9.82;;;;;;;;;;4927874;29;20054;-91
2022/12/04 07:34:03;;;;;;;79.45;31.80;;;;;;;;;;4942603;29;20502;-92
2022/12/04 07:36:29;;;;;;;20.98;10.07;;;;;;;;;;4928638;29;20051;-90
2022/12/04 07:38:55;;;;;;;16.60;8.82;;;;;;;;;;4939817;29;20028;-92
2022/12/04 07:41:21;;;;;;;13.13;7.90;;;;;;;;;;4940356;29;20044;-94
2022/12/04 07:43:48;;;;;;;19.67;9.02;;;;;;;;;;4923417;29;20024;-92
2022/12/04 07:46:51;;;;;;;18.30;10.35;;;;;;;;;;4949342;29;20023;-91
2022/12/04 07:49:17;;;;;;;14.40;8.02;;;;;;;;;;4923924;29;20036;-93
2022/12/04 07:51:43;;;;;;;12.80;7.70;;;;;;;;;;4945070;29;20349;-92
2022/12/04 07:54:09;;;;;;;13.15;7.60;;;;;;;;;;4940190;29;20055;-90
2022/12/04 07:56:35;;;;;;;14.45;6.70;;;;;;;;;;4939557;29;20329;-91
2022/12/04 07:59:02;;;;;;;14.32;7.95;;;;;;;;;;4939900;29;20065;-92
2022/12/04 08:02:05;;;;;;;20.95;10.52;;;;;;;;;;4923033;29;20039;-91
2022/12/04 08:04:32;;;;;;;20.55;10.23;;;;;;;;;;4920459;29;20020;-92
2022/12/04 08:06:58;;;;;;;39.15;13.75;;;;;;;;;;4938763;29;20067;-91
2022/12/04 08:09:24;;;;;;;39.38;15.77;;;;;;;;;;4923282;29;20079;-92
2022/12/04 08:11:50;;;;;;;23.30;9.98;;;;;;;;;;4923207;29;20070;-93
2022/12/04 08:14:18;;;;;;;28.48;11.43;;;;;;;;;;4923156;29;20036;-91
2022/12/04 08:19:48;;;;;;;28.15;11.45;;;;;;;;;;4932874;29;20088;-94
2022/12/04 08:22:14;;;;;;;36.50;12.25;;;;;;;;;;4939428;29;20024;-93
2022/12/04 08:24:40;;;;;;;21.45;9.32;;;;;;;;;;4926086;29;20127;-94
2022/12/04 08:27:06;;;;;;;25.90;10.23;;;;;;;;;;4922986;29;20032;-93
2022/12/04 08:29:32;;;;;;;27.27;10.52;;;;;;;;;;4944004;29;20184;-93
2022/12/04 08:31:58;;;;;;;17.20;8.35;;;;;;;;;;4926476;29;20130;-93
2022/12/04 08:34:24;;;;;;;37.38;11.35;;;;;;;;;;4941546;29;20032;-96
2022/12/04 08:36:50;;;;;;;24.52;9.18;;;;;;;;;;4926651;29;20028;-92
2022/12/04 08:39:16;;;;;;;15.02;8.50;;;;;;;;;;4926323;29;20035;-94
2022/12/04 08:41:42;;;;;;;15.07;7.53;;;;;;;;;;4943555;29;20024;-90
2022/12/04 08:44:09;;;;;;;17.15;8.10;;;;;;;;;;4929238;29;20032;-89
2022/12/04 08:46:35;;;;;;;20.27;10.40;;;;;;;;;;4943053;29;20039;-92
2022/12/04 08:49:01;;;;;;;19.10;8.90;;;;;;;;;;4943178;29;20027;-90
2022/12/04 08:51:28;;;;;;;16.75;8.25;;;;;;;;;;4943053;29;20071;-91
2022/12/04 08:53:55;;;;;;;16.50;9.25;;;;;;;;;;4942771;29;20075;-89
2022/12/04 08:56:22;;;;;;;14.85;7.07;;;;;;;;;;4941614;29;20034;-89
2022/12/04 08:58:48;;;;;;;16.75;8.13;;;;;;;;;;4925608;29;20044;-90
2022/12/04 09:01:14;;;;;;;13.38;6.35;;;;;;;;;;4937766;29;20359;-90
2022/12/04 09:03:41;;;;;;;15.00;7.70;;;;;;;;;;4922956;29;20042;-92
2022/12/04 09:06:07;;;;;;;13.43;7.30;;;;;;;;;;4920875;29;20134;-89
2022/12/04 09:08:34;;;;;;;17.95;9.55;;;;;;;;;;4942225;29;20047;-90
2022/12/04 09:11:10;;;;;;;14.52;7.28;;;;;;;;;;4938377;29;20028;-88
2022/12/04 09:13:36;;;;;;;17.77;7.53;;;;;;;;;;4923710;29;20027;-88
2022/12/04 09:16:06;;;;;;;12.65;6.45;;;;;;;;;;4936827;29;20043;-87
2022/12/04 09:18:32;;;;;;;13.38;6.90;;;;;;;;;;4925545;29;20035;-88
2022/12/04 09:20:59;;;;;;;14.23;7.95;;;;;;;;;;4939616;29;20031;-88
2022/12/04 09:23:26;;;;;;;17.05;7.82;;;;;;;;;;4925504;29;20118;-89
2022/12/04 09:25:52;;;;;;;12.25;7.10;;;;;;;;;;4942638;29;20098;-89
2022/12/04 09:28:19;;;;;;;16.20;9.38;;;;;;;;;;4942079;29;20028;-88
2022/12/04 09:30:45;;;;;;;13.18;6.93;;;;;;;;;;4925289;29;20474;-87
2022/12/04 09:33:11;;;;;;;15.32;7.05;;;;;;;;;;4941720;29;20040;-88
2022/12/04 09:35:38;;;;;;;32.10;10.15;;;;;;;;;;4925475;29;20024;-88
2022/12/04 09:38:04;;;;;;;32.30;11.15;;;;;;;;;;4925184;29;20027;-88
2022/12/04 09:40:35;;;;;;;16.55;8.55;;;;;;;;;;4925295;29;20046;-89
2022/12/04 09:43:04;;;;;;;21.20;9.77;;;;;;;;;;4941882;29;20042;-89
2022/12/04 11:50:23;;;;;;;21.98;12.20;;;;;;;;;;5115800;27;20368;-90
2022/12/04 11:52:52;;;;;;;13.57;9.23;;;;;;;;;;5094223;28;20028;-89
2022/12/04 11:55:41;;;;;;;17.77;8.50;;;;;;;;;;5094006;28;20055;-89
2022/12/04 11:58:26;;;;;;;14.18;9.07;;;;;;;;;;5016688;28;20088;-89
2022/12/04 12:00:56;;;;;;;15.50;9.25;;;;;;;;;;5033337;28;20026;-90
2022/12/04 12:03:38;;;;;;;16.75;9.70;;;;;;;;;;5033114;28;20325;-89
2022/12/04 12:06:10;;;;;;;15.20;8.52;;;;;;;;;;5032932;28;20068;-88
2022/12/04 12:08:36;;;;;;;15.25;8.95;;;;;;;;;;5033115;28;20068;-89
2022/12/04 12:11:19;;;;;;;13.88;8.45;;;;;;;;;;5033108;28;20034;-88
2022/12/04 12:13:54;;;;;;;12.40;8.75;;;;;;;;;;5033172;28;20068;-89
2022/12/04 12:16:28;;;;;;;13.30;8.55;;;;;;;;;;5032874;28;20033;-88
2022/12/04 12:19:10;;;;;;;13.18;7.93;;;;;;;;;;5032683;28;20509;-89
2022/12/04 12:21:42;;;;;;;14.25;8.52;;;;;;;;;;5033009;28;20075;-88
2022/12/04 12:24:24;;;;;;;12.82;8.32;;;;;;;;;;5032628;28;20029;-89
2022/12/04 12:26:50;;;;;;;14.30;7.50;;;;;;;;;;5032802;28;20041;-89
2022/12/04 12:29:16;;;;;;;13.18;7.43;;;;;;;;;;5032796;28;20033;-89
2022/12/04 12:31:45;;;;;;;13.90;8.48;;;;;;;;;;5032552;28;20075;-88
2022/12/04 12:34:14;;;;;;;12.85;6.78;;;;;;;;;;5041006;28;20030;-89
2022/12/04 12:36:43;;;;;;;11.98;6.50;;;;;;;;;;5093248;28;20028;-89
2022/12/04 12:39:15;;;;;;;19.75;8.90;;;;;;;;;;5094026;28;20493;-89
2022/12/04 12:41:41;;;;;;;;;;;;;;;;;;5077308;28;20028;-90
2022/12/04 12:44:43;;;;;;;11.10;6.72;;;;;;;;;;5072678;28;19905;-88
2022/12/04 12:47:14;;;;;;;8.77;6.00;;;;;;;;;;4996118;28;20420;-89
2022/12/04 12:49:40;;;;;;;14.00;7.30;;;;;;;;;;5007574;28;20133;-90
2022/12/04 12:52:26;;;;;;;14.55;7.65;;;;;;;;;;4999606;28;20630;-89
2022/12/04 12:54:59;;;;;;;12.82;8.40;;;;;;;;;;4941219;29;20039;-89
2022/12/04 12:57:30;;;;;;;13.82;7.43;;;;;;;;;;4925620;29;20150;-89
2022/12/04 12:59:59;;;;;;;13.43;7.65;;;;;;;;;;4925595;29;20031;-89
2022/12/04 13:02:29;;;;;;;12.52;5.95;;;;;;;;;;4941385;29;20035;-88
2022/12/04 13:04:58;;;;;;;15.73;6.00;;;;;;;;;;4925432;29;20418;-90
2022/12/04 13:07:32;;;;;;;10.85;6.82;;;;;;;;;;4925537;29;20071;-89
2022/12/04 13:10:19;;;;;;;13.50;7.05;;;;;;;;;;4941194;29;20436;-89
2022/12/04 13:12:57;;;;;;;16.13;6.45;;;;;;;;;;4925209;29;20046;-89
2022/12/04 13:15:25;;;;;;;12.95;7.13;;;;;;;;;;4924998;29;20040;-89
2022/12/04 13:17:53;;;;;;;16.48;8.30;;;;;;;;;;4924937;29;20040;-88
2022/12/04 13:20:24;;;;;;;14.40;6.65;;;;;;;;;;4932312;28;20298;-89
2022/12/04 13:23:01;;;;;;;12.32;8.02;;;;;;;;;;4963142;28;20030;-89
2022/12/04 13:25:27;;;;;;;11.75;6.72;;;;;;;;;;4963313;28;20035;-89
2022/12/04 13:28:12;;;;;;;15.60;7.72;;;;;;;;;;4979469;28;20110;-89
2022/12/04 13:30:57;;;;;;;10.00;7.10;;;;;;;;;;4979271;28;20074;-89
2022/12/04 13:33:23;;;;;;;11.98;7.72;;;;;;;;;;5059564;28;20029;-89
2022/12/04 13:36:07;;;;;;;14.75;7.82;;;;;;;;;;5059873;28;20047;-89
2022/12/04 13:38:33;;;;;;;12.35;7.30;;;;;;;;;;5059870;28;20028;-86
2022/12/04 13:41:01;;;;;;;9.43;6.40;;;;;;;;;;5058536;28;20322;-87
2022/12/04 13:43:33;;;;;;;12.77;7.20;;;;;;;;;;5059528;28;20025;-86
2022/12/04 13:45:59;;;;;;;;;;;;;;;;;;5060031;28;20337;-86
2022/12/04 13:48:36;;;;;;;13.73;6.15;;;;;;;;;;5058124;28;20011;-87
2022/12/04 13:51:07;;;;;;;18.67;7.30;;;;;;;;;;5059395;28;20025;-86
2022/12/04 13:53:36;;;;;;;12.68;6.90;;;;;;;;;;5058273;28;20084;-87
2022/12/04 13:56:03;;;;;;;15.60;8.32;;;;;;;;;;5058408;28;20029;-86
2022/12/04 13:58:31;;;;;;;14.90;7.20;;;;;;;;;;5058200;28;20426;-87
2022/12/04 14:01:16;;;;;;;14.93;7.32;;;;;;;;;;5057587;28;20028;-87
2022/12/04 14:03:55;;;;;;;11.32;7.15;;;;;;;;;;5058203;28;20028;-89
2022/12/04 14:06:25;;;;;;;12.02;7.10;;;;;;;;;;5058985;28;20062;-89
2022/12/04 14:08:56;;;;;;;13.15;7.88;;;;;;;;;;5059039;28;20033;-88
2022/12/04 14:11:22;;;;;;;13.90;7.28;;;;;;;;;;5057870;28;20033;-88
2022/12/04 14:13:56;;;;;;;20.92;10.00;;;;;;;;;;5057953;28;20040;-89
2022/12/04 14:16:22;;;;;;;21.17;8.40;;;;;;;;;;5058790;28;20112;-89
2022/12/04 14:18:59;;;;;;;11.25;6.43;;;;;;;;;;5059012;28;20326;-89
2022/12/04 14:21:25;;;;;;;11.32;6.97;;;;;;;;;;5058884;28;20025;-89
2022/12/04 14:23:52;;;;;;;15.43;6.85;;;;;;;;;;5058495;28;20040;-89
2022/12/04 14:26:24;;;;;;;14.55;6.65;;;;;;;;;;5057490;28;20027;-90
2022/12/04 14:28:50;;;;;;;16.83;6.90;;;;;;;;;;5058487;28;20342;-90
2022/12/04 14:31:23;;;;;;;12.02;6.75;;;;;;;;;;5058734;28;20032;-89
2022/12/04 14:33:55;;;;;;;15.57;7.07;;;;;;;;;;5059117;28;20474;-90
2022/12/04 14:36:24;;;;;;;14.13;6.75;;;;;;;;;;5057691;28;20041;-90
2022/12/04 14:38:53;;;;;;;15.85;6.50;;;;;;;;;;5058473;28;20025;-89
2022/12/04 14:41:26;;;;;;;14.07;7.70;;;;;;;;;;5058181;28;20028;-89
2022/12/04 14:43:52;;;;;;;15.40;7.35;;;;;;;;;;5057267;28;20021;-89
2022/12/04 14:46:27;;;;;;;16.25;8.68;;;;;;;;;;5057387;28;20108;-89
2022/12/04 14:48:56;;;;;;;15.82;7.50;;;;;;;;;;5057329;28;20180;-89
2022/12/04 14:51:33;;;;;;;12.68;6.90;;;;;;;;;;5058150;28;20116;-89
2022/12/04 14:54:18;;;;;;;20.05;6.82;;;;;;;;;;5058031;28;20410;-89
2022/12/04 14:56:47;;;;;;;17.40;8.32;;;;;;;;;;5058421;28;20066;-89
2022/12/04 14:59:20;;;;;;;17.38;7.97;;;;;;;;;;5058332;28;20033;-89
2022/12/04 15:01:47;;;;;;;21.80;10.73;;;;;;;;;;5057019;28;20072;-89
2022/12/04 15:04:13;;;;;;;22.27;10.20;;;;;;;;;;5056897;28;20017;-89
2022/12/04 15:06:39;;;;;;;18.17;8.48;;;;;;;;;;5057798;28;20025;-89
2022/12/04 15:14:48;;;;;;;14.98;7.20;;;;;;;;;;5058166;28;20044;-90
2022/12/04 15:17:15;;;;;;;14.38;7.97;;;;;;;;;;5057912;28;20094;-90
2022/12/04 15:19:41;;;;;;;17.30;8.55;;;;;;;;;;5057979;28;20430;-89
2022/12/04 15:22:11;;;;;;;13.52;7.22;;;;;;;;;;5056814;28;20051;-89
2022/12/04 15:24:37;;;;;;;17.23;8.73;;;;;;;;;;5057774;28;20029;-90
2022/12/04 15:27:05;;;;;;;17.85;8.50;;;;;;;;;;5057871;28;20021;-90
2022/12/04 15:29:33;;;;;;;13.63;8.25;;;;;;;;;;5057334;28;20028;-89
2022/12/04 15:32:02;;;;;;;16.50;9.27;;;;;;;;;;5057449;28;20029;-89
2022/12/04 15:34:42;;;;;;;13.32;6.53;;;;;;;;;;5056751;28;20291;-90
2022/12/04 15:37:13;;;;;;;14.38;8.07;;;;;;;;;;5056592;28;20028;-89
2022/12/04 15:39:39;;;;;;;12.13;6.20;;;;;;;;;;5057442;28;20025;-90
2022/12/04 15:42:05;;;;;;;10.65;6.55;;;;;;;;;;5056606;28;20025;-90
2022/12/04 15:44:33;;;;;;;11.52;6.82;;;;;;;;;;5057847;28;20032;-89
2022/12/04 15:47:03;;;;;;;9.80;6.97;;;;;;;;;;5056495;28;20028;-89
2022/12/04 15:49:33;;;;;;;14.82;6.82;;;;;;;;;;5054983;28;20090;-90
2022/12/04 15:52:14;;;;;;;14.32;6.70;;;;;;;;;;5066897;28;20044;-89
2022/12/04 15:55:00;;;;;;;13.25;7.10;;;;;;;;;;5057672;28;20075;-90
2022/12/04 15:57:28;;;;;;;20.20;8.18;;;;;;;;;;5046789;28;20025;-89
2022/12/04 15:59:56;;;;;;;16.63;8.93;;;;;;;;;;5057440;28;20028;-89
2022/12/04 16:02:25;;;;;;;17.15;8.77;;;;;;;;;;5058788;28;20115;-88
2022/12/04 16:04:51;;;;;;;24.50;11.63;;;;;;;;;;5092804;28;20025;-82
2022/12/04 16:07:22;;;;;;;24.17;11.80;;;;;;;;;;5058946;28;20067;-82
2022/12/04 16:09:52;;;;;;;18.73;9.20;;;;;;;;;;5055494;28;20029;-81
2022/12/04 16:12:25;;;;;;;16.02;9.10;;;;;;;;;;5055731;28;20075;-81
2022/12/04 16:14:54;;;;;;;11.95;6.72;;;;;;;;;;5056754;28;20021;-81
2022/12/04 16:17:28;;;;;;;16.27;7.65;;;;;;;;;;5056601;28;20044;-81
2022/12/04 16:19:55;;;;;;;12.95;6.45;;;;;;;;;;5056557;28;20052;-81
2022/12/04 16:22:28;;;;;;;14.88;6.53;;;;;;;;;;5055779;28;20031;-82
2022/12/04 16:24:55;;;;;;;14.18;7.07;;;;;;;;;;5057467;28;20020;-83
2022/12/04 16:27:23;;;;;;;11.38;6.90;;;;;;;;;;5065020;28;20028;-82
2022/12/04 16:29:50;;;;;;;12.85;8.07;;;;;;;;;;5064548;28;20036;-83
2022/12/04 16:32:16;;;;;;;10.82;6.88;;;;;;;;;;5071690;28;20025;-83
2022/12/04 16:34:42;;;;;;;16.08;7.68;;;;;;;;;;5059234;28;20065;-81
2022/12/04 16:37:11;;;;;;;13.40;7.78;;;;;;;;;;5059275;28;20326;-83
2022/12/04 16:39:37;;;;;;;11.63;7.38;;;;;;;;;;5060327;28;20033;-82
2022/12/04 16:42:03;;;;;;;12.77;6.93;;;;;;;;;;5058740;28;20037;-82
2022/12/04 16:44:29;;;;;;;15.27;9.00;;;;;;;;;;5060133;28;20021;-83
2022/12/04 16:46:55;;;;;;;13.50;7.32;;;;;;;;;;5059024;28;20036;-82
2022/12/04 16:49:21;;;;;;;12.75;6.78;;;;;;;;;;5059606;28;20059;-82
2022/12/04 16:51:50;;;;;;;11.77;7.40;;;;;;;;;;5060317;28;20024;-82
2022/12/04 16:54:17;;;;;;;12.55;7.35;;;;;;;;;;5059936;28;20025;-83
2022/12/04 16:56:43;;;;;;;14.52;8.60;;;;;;;;;;5060277;28;20036;-82
2022/12/04 16:59:09;;;;;;;12.27;8.23;;;;;;;;;;5059951;28;20035;-82
2022/12/04 17:01:37;;;;;;;12.85;7.38;;;;;;;;;;5058827;28;20021;-82
2022/12/04 17:04:03;;;;;;;14.18;8.32;;;;;;;;;;5059837;28;20029;-82
2022/12/04 17:06:31;;;;;;;13.65;8.68;;;;;;;;;;5059747;28;20072;-83
2022/12/04 17:08:58;;;;;;;18.60;9.65;;;;;;;;;;5059706;28;20025;-83
2022/12/04 17:11:24;;;;;;;17.40;9.20;;;;;;;;;;5059724;28;20399;-83
2022/12/04 17:13:50;;;;;;;12.48;8.02;;;;;;;;;;5058465;28;20437;-82
2022/12/04 17:16:16;;;;;;;12.50;7.78;;;;;;;;;;5059656;28;20036;-82
2022/12/04 17:18:42;;;;;;;14.23;8.38;;;;;;;;;;5059637;28;20086;-83
2022/12/04 17:21:09;;;;;;;13.32;7.18;;;;;;;;;;5059548;28;20028;-81
2022/12/04 17:23:35;;;;;;;10.57;6.85;;;;;;;;;;5059601;28;20017;-83
2022/12/04 17:26:05;;;;;;;16.70;8.80;;;;;;;;;;5059594;28;20051;-83
2022/12/04 17:28:35;;;;;;;14.00;7.70;;;;;;;;;;5059423;28;20025;-82
2022/12/04 17:31:03;;;;;;;18.55;8.30;;;;;;;;;;5058072;28;20033;-83
2022/12/04 17:33:29;;;;;;;13.93;7.57;;;;;;;;;;5058969;28;20039;-83
2022/12/04 17:35:58;;;;;;;15.68;9.07;;;;;;;;;;5059382;28;20044;-82
2022/12/04 17:38:25;;;;;;;19.30;10.50;;;;;;;;;;5059122;28;20060;-82
2022/12/04 17:41:03;;;;;;;12.15;7.28;;;;;;;;;;5058009;28;20417;-80
2022/12/04 17:43:30;;;;;;;15.77;9.27;;;;;;;;;;5059097;28;20113;-83
2022/12/04 17:45:56;;;;;;;20.38;9.38;;;;;;;;;;5059070;28;20096;-82
2022/12/04 17:48:23;;;;;;;18.13;10.68;;;;;;;;;;5058784;28;20502;-82
2022/12/04 17:50:49;;;;;;;19.23;11.02;;;;;;;;;;5058410;28;20088;-82
2022/12/04 17:53:15;;;;;;;19.40;11.55;;;;;;;;;;5047159;28;20025;-81
2022/12/04 17:55:41;;;;;;;16.55;9.18;;;;;;;;;;5078677;28;20123;-83
2022/12/04 17:58:07;;;;;;;13.90;8.80;;;;;;;;;;5094481;28;20028;-82
2022/12/04 18:00:33;;;;;;;14.45;9.25;;;;;;;;;;5094062;28;20094;-81
2022/12/04 18:02:59;;;;;;;14.52;7.68;;;;;;;;;;5078721;28;20031;-83